createdAt,value
2023-04-18T00:00:18.293Z,100301.91
2023-04-18T00:05:21.132Z,100301.00
2023-04-18T00:10:23.159Z,100294.84
2023-04-18T00:15:25.162Z,100296.84
2023-04-18T00:20:27.172Z,100293.34
2023-04-18T00:25:29.240Z,100291.56
2023-04-18T00:30:31.158Z,100299.53
2023-04-18T00:35:33.115Z,100293.53
2023-04-18T00:40:35.100Z,100293.50
2023-04-18T00:45:36.946Z,100289.13
2023-04-18T00:50:38.903Z,100286.41
2023-04-18T00:55:40.834Z,100283.78
2023-04-18T01:00:42.790Z,100298.66
2023-04-18T01:05:45.294Z,100289.88
2023-04-18T01:10:47.443Z,100296.03
2023-04-18T01:15:49.913Z,100292.53
2023-04-18T01:20:52.943Z,100296.13
2023-04-18T01:25:55.189Z,100284.97
2023-04-18T01:30:57.134Z,100286.09
2023-04-18T01:35:59.084Z,100282.53
2023-04-18T01:41:01.002Z,100274.69
2023-04-18T01:46:02.924Z,100272.16
2023-04-18T01:51:05.193Z,100268.91
2023-04-18T01:56:07.161Z,100284.84
2023-04-18T02:01:09.130Z,100270.75
2023-04-18T02:06:11.096Z,100264.69
2023-04-18T02:11:12.956Z,100264.56
2023-04-18T02:16:14.991Z,100264.56
2023-04-18T02:21:36.897Z,100272.69
2023-04-18T02:26:38.878Z,100270.09
2023-04-18T02:31:41.260Z,100268.34
2023-04-18T02:36:43.284Z,100268.53
2023-04-18T02:41:45.122Z,100265.13
2023-04-18T02:46:46.993Z,100269.50
2023-04-18T02:51:48.917Z,100272.97
2023-04-18T02:56:53.659Z,100269.28
2023-04-18T03:01:55.642Z,100266.53
2023-04-18T03:06:57.696Z,100262.97
2023-04-18T03:11:59.601Z,100264.66
2023-04-18T03:17:01.482Z,100267.28
2023-04-18T03:22:03.516Z,100266.25
2023-04-18T03:27:05.437Z,100272.28
2023-04-18T03:32:07.376Z,100264.25
2023-04-18T03:37:09.339Z,100264.81
2023-04-18T03:42:11.218Z,100265.38
2023-04-18T03:47:13.019Z,100264.22
2023-04-18T03:52:14.936Z,100266.97
2023-04-18T03:57:17.036Z,100273.44
2023-04-18T04:02:19.138Z,100272.63
2023-04-18T04:07:21.239Z,100269.56
2023-04-18T04:12:23.192Z,100269.56
2023-04-18T04:17:25.098Z,100267.78
2023-04-18T04:22:27.064Z,100279.44
2023-04-18T04:27:28.958Z,100278.44
2023-04-18T04:32:31.296Z,100272.97
2023-04-18T04:37:33.213Z,100280.50
2023-04-18T04:42:35.541Z,100275.47
2023-04-18T04:47:37.547Z,100278.41
2023-04-18T04:52:56.076Z,100272.25
2023-04-18T04:57:57.952Z,100276.66
2023-04-18T05:03:00.033Z,100274.81
2023-04-18T05:08:02.514Z,100265.91
2023-04-18T05:13:04.775Z,100262.91
2023-04-18T05:18:06.658Z,100263.50
2023-04-18T05:23:08.637Z,100263.78
2023-04-18T05:28:10.528Z,100270.34
2023-04-18T05:33:12.392Z,100270.50
2023-04-18T05:38:14.317Z,100276.34
2023-04-18T05:43:16.183Z,100272.75
2023-04-18T05:48:18.137Z,100280.81
2023-04-18T05:53:19.966Z,100281.00
2023-04-18T05:58:21.858Z,100274.88
2023-04-18T06:03:24.105Z,100263.59
2023-04-18T06:08:25.810Z,100261.91
2023-04-18T06:13:27.627Z,100241.38
2023-04-18T06:18:29.550Z,100235.38
2023-04-18T06:23:31.209Z,100242.31
2023-04-18T06:28:33.282Z,100256.13
2023-04-18T06:33:35.990Z,100246.50
2023-04-18T06:38:37.844Z,100252.13
2023-04-18T06:43:42.542Z,100250.22
2023-04-18T06:48:49.855Z,100251.09
2023-04-18T06:53:52.958Z,100227.88
2023-04-18T06:58:54.917Z,100248.75
2023-04-18T07:03:56.819Z,100260.13
2023-04-18T07:08:58.503Z,100253.88
2023-04-18T07:14:00.302Z,100254.72
2023-04-18T07:19:02.098Z,100255.41
2023-04-18T07:24:04.060Z,100260.53
2023-04-18T07:29:05.745Z,100263.41
2023-04-18T07:34:07.534Z,100266.00
2023-04-18T07:39:09.468Z,100253.59
2023-04-18T07:44:11.435Z,100249.84
2023-04-18T07:49:13.773Z,100245.44
2023-04-18T07:54:16.000Z,100239.22
2023-04-18T07:59:18.102Z,100245.69
2023-04-18T08:04:20.209Z,100245.94
2023-04-18T08:09:22.171Z,100263.78
2023-04-18T08:14:24.050Z,100259.56
2023-04-18T08:19:26.092Z,100262.69
2023-04-18T08:24:28.019Z,100266.91
2023-04-18T08:29:29.907Z,100275.31
2023-04-18T08:34:33.798Z,100278.56
2023-04-18T08:39:35.779Z,100275.50
2023-04-18T08:44:37.712Z,100284.84
2023-04-18T08:49:39.854Z,100276.44
2023-04-18T08:54:42.132Z,100276.53
2023-04-18T08:59:47.099Z,100276.88
2023-04-18T09:04:50.328Z,100272.38
2023-04-18T09:09:53.301Z,100272.28
2023-04-18T09:15:15.939Z,100273.22
2023-04-18T09:20:28.132Z,100273.47
2023-04-18T09:25:44.971Z,100274.47
2023-04-18T09:30:47.392Z,100284.69
2023-04-18T09:35:49.313Z,100279.38
2023-04-18T09:41:07.612Z,100276.59
2023-04-18T09:46:09.609Z,100283.94
2023-04-18T09:51:15.042Z,100273.66
2023-04-18T09:56:27.919Z,100276.81
2023-04-18T10:01:30.168Z,100274.84
2023-04-18T10:06:35.367Z,100283.22
2023-04-18T10:11:37.370Z,100284.22
2023-04-18T10:16:39.496Z,100293.31
2023-04-18T10:21:51.596Z,100276.44
2023-04-18T10:26:53.472Z,100280.03
2023-04-18T10:31:55.298Z,100273.72
2023-04-18T10:37:03.987Z,100276.09
2023-04-18T10:42:05.909Z,100274.41
2023-04-18T10:47:07.723Z,100285.00
2023-04-18T10:52:10.869Z,100282.91
2023-04-18T10:57:13.607Z,100281.38
2023-04-18T11:02:31.336Z,100280.28
2023-04-18T11:07:39.340Z,100273.72
2023-04-18T11:12:41.302Z,100275.69
2023-04-18T11:17:43.536Z,100267.50
2023-04-18T11:22:50.737Z,100272.41
2023-04-18T11:27:52.582Z,100268.25
2023-04-18T11:32:54.577Z,100267.44
2023-04-18T11:37:56.666Z,100263.97
2023-04-18T11:43:01.528Z,100253.31
2023-04-18T11:48:03.601Z,100253.13
2023-04-18T11:53:05.473Z,100263.41
2023-04-18T11:58:07.396Z,100258.28
2023-04-18T12:03:16.756Z,100249.28
2023-04-18T12:08:19.956Z,100252.13
2023-04-18T12:13:25.924Z,100241.94
2023-04-18T12:18:28.073Z,100242.72
2023-04-18T12:23:33.211Z,100245.88
2023-04-18T12:28:35.485Z,100234.94
2023-04-18T12:33:37.414Z,100237.66
2023-04-18T12:38:39.395Z,100229.63
2023-04-18T12:43:41.279Z,100235.94
2023-04-18T12:48:43.198Z,100221.00
2023-04-18T12:53:45.364Z,100231.91
2023-04-18T12:58:47.311Z,100224.34
2023-04-18T13:03:59.973Z,100218.25
2023-04-18T13:09:10.596Z,100211.56
2023-04-18T13:14:12.649Z,100226.00
2023-04-18T13:19:15.018Z,100217.63
2023-04-18T13:24:16.824Z,100220.91
2023-04-18T13:29:18.602Z,100215.16
2023-04-18T13:34:20.517Z,100215.25
2023-04-18T13:39:22.360Z,100211.41
2023-04-18T13:44:24.560Z,100208.38
2023-04-18T13:49:26.742Z,100207.88
2023-04-18T13:54:30.145Z,100203.50
2023-04-18T13:59:32.278Z,100207.22
2023-04-18T14:04:34.523Z,100200.97
2023-04-18T14:09:36.609Z,100201.69
2023-04-18T14:14:38.587Z,100207.44
2023-04-18T14:19:40.425Z,100207.06
2023-04-18T14:24:42.306Z,100203.59
2023-04-18T14:29:44.348Z,100211.25
2023-04-18T14:34:46.231Z,100207.88
2023-04-18T14:39:48.157Z,100211.09
2023-04-18T14:44:50.168Z,100216.72
2023-04-18T14:49:52.113Z,100215.13
2023-04-18T14:54:53.946Z,100212.06
2023-04-18T14:59:56.314Z,100218.34
2023-04-18T15:04:59.177Z,100221.13
2023-04-18T15:10:01.260Z,100219.13
2023-04-18T15:15:03.263Z,100223.72
2023-04-18T15:20:06.629Z,100217.41
2023-04-18T15:25:08.934Z,100218.25
2023-04-18T15:30:11.110Z,100217.72
2023-04-18T15:35:12.966Z,100224.56
2023-04-18T15:40:15.713Z,100222.78
2023-04-18T15:45:17.722Z,100220.06
2023-04-18T15:50:19.722Z,100224.63
2023-04-18T15:55:21.625Z,100230.09
2023-04-18T16:00:23.529Z,100229.56
2023-04-18T16:05:25.565Z,100230.06
2023-04-18T16:10:27.625Z,100237.13
2023-04-18T16:15:32.920Z,100232.84
2023-04-18T16:20:34.984Z,100226.00
2023-04-18T16:25:36.959Z,100227.84
2023-04-18T16:30:38.945Z,100239.13
2023-04-18T16:35:40.776Z,100241.16
2023-04-18T16:40:42.925Z,100240.38
2023-04-18T16:45:44.979Z,100245.91
2023-04-18T16:50:46.903Z,100250.50
2023-04-18T16:55:48.934Z,100252.41
2023-04-18T17:00:50.912Z,100251.75
2023-04-18T17:05:52.850Z,100257.22
2023-04-18T17:10:55.140Z,100259.13
2023-04-18T17:15:57.472Z,100261.91
2023-04-18T17:20:59.561Z,100267.38
2023-04-18T17:26:02.978Z,100261.50
2023-04-18T17:31:05.035Z,100264.97
2023-04-18T17:36:07.701Z,100265.13
2023-04-18T17:41:09.561Z,100275.72
2023-04-18T17:46:11.718Z,100276.63
2023-04-18T17:51:13.598Z,100269.00
2023-04-18T17:56:15.526Z,100278.56
2023-04-18T18:01:18.486Z,100269.66
2023-04-18T18:06:20.504Z,100277.81
2023-04-18T18:11:22.380Z,100276.16
2023-04-18T18:16:24.292Z,100273.59
2023-04-18T18:21:26.208Z,100273.69
2023-04-18T18:26:28.081Z,100270.16
2023-04-18T18:31:29.994Z,100274.78
2023-04-18T18:36:32.203Z,100267.81
2023-04-18T18:41:34.095Z,100269.75
2023-04-18T18:46:36.825Z,100262.84
2023-04-18T18:51:38.723Z,100266.56
2023-04-18T18:56:40.651Z,100258.69
2023-04-18T19:01:42.613Z,100265.75
2023-04-18T19:06:44.585Z,100266.66
2023-04-18T19:11:46.587Z,100267.56
2023-04-18T19:16:48.441Z,100271.03
2023-04-18T19:21:50.359Z,100261.44
2023-04-18T19:26:52.169Z,100256.16
2023-04-18T19:31:54.235Z,100261.53
2023-04-18T19:36:56.287Z,100258.00
2023-04-18T19:41:58.228Z,100262.41
2023-04-18T19:47:00.165Z,100267.84
2023-04-18T19:52:02.053Z,100267.84
2023-04-18T19:57:04.094Z,100262.50
2023-04-18T20:02:06.682Z,100268.88
2023-04-18T20:07:08.781Z,100274.38
2023-04-18T20:12:10.706Z,100274.94
2023-04-18T20:17:12.726Z,100284.00
2023-04-18T20:22:14.582Z,100273.56
2023-04-18T20:27:16.514Z,100274.50
2023-04-18T20:32:18.449Z,100286.19
2023-04-18T20:37:20.477Z,100284.72
2023-04-18T20:42:22.347Z,100293.66
2023-04-18T20:47:24.317Z,100284.09
2023-04-18T20:52:26.310Z,100294.78
2023-04-18T20:57:28.239Z,100291.50
2023-04-18T21:02:30.199Z,100298.56
2023-04-18T21:07:32.118Z,100299.63
2023-04-18T21:12:34.014Z,100304.03
2023-04-18T21:17:36.116Z,100303.19
2023-04-18T21:22:38.148Z,100307.53
2023-04-18T21:27:40.195Z,100299.72
2023-04-18T21:32:42.173Z,100300.66
2023-04-18T21:37:44.194Z,100313.00
2023-04-18T21:42:47.678Z,100300.66
2023-04-18T21:47:50.813Z,100300.69
2023-04-18T21:52:52.840Z,100306.91
2023-04-18T21:57:54.726Z,100305.16
2023-04-18T22:02:56.778Z,100314.84
2023-04-18T22:07:58.941Z,100312.28
2023-04-18T22:13:02.783Z,100316.63
2023-04-18T22:18:05.690Z,100308.78
2023-04-18T22:23:08.318Z,100310.59
2023-04-18T22:28:10.042Z,100308.16
2023-04-18T22:33:11.917Z,100308.19
2023-04-18T22:38:13.844Z,100310.94
2023-04-18T22:43:15.810Z,100309.16
2023-04-18T22:48:17.788Z,100308.38
2023-04-18T22:53:19.705Z,100304.06
2023-04-18T22:58:21.545Z,100302.41
2023-04-18T23:03:23.698Z,100305.06
2023-04-18T23:08:25.774Z,100303.47
2023-04-18T23:13:27.709Z,100313.16
2023-04-18T23:18:29.920Z,100305.38
2023-04-18T23:23:32.003Z,100300.13
2023-04-18T23:28:33.933Z,100303.59
2023-04-18T23:33:35.959Z,100291.47
2023-04-18T23:38:37.960Z,100294.94
2023-04-18T23:43:39.825Z,100294.94
2023-04-18T23:48:42.004Z,100291.53
2023-04-18T23:53:44.068Z,100292.28
2023-04-18T23:58:46.020Z,100298.56
